Time;durP1;ratioP1;P1;durP2;ratioP2;P2;SDS_P1;SDS_P2;PMS_P1;PMS_P2;Temp;Humidity;BMP_temperature;BMP_pressure;BME280_temperature;BME280_humidity;BME280_pressure;Samples;Min_cycle;Max_cycle;Signal;HPM_P1;HPM_P2
2022/10/21 00:00:15;;;;;;;0.77;0.68;;;11.30;99.90;;;;;;5039329;28;20416;-76
2022/10/21 00:02:41;;;;;;;0.65;0.50;;;11.30;99.90;;;;;;5038988;28;20061;-76
2022/10/21 00:05:08;;;;;;;0.40;0.40;;;11.30;99.90;;;;;;5039253;28;20037;-76
2022/10/21 00:07:35;;;;;;;0.73;0.60;;;11.30;99.90;;;;;;5022786;28;20055;-77
2022/10/21 00:10:03;;;;;;;0.90;0.68;;;11.30;99.90;;;;;;5024094;28;20075;-77
2022/10/21 00:12:30;;;;;;;0.50;0.43;;;11.30;99.90;;;;;;5051185;28;20048;-77
2022/10/21 00:14:57;;;;;;;0.95;0.50;;;11.40;99.90;;;;;;5039967;28;20060;-77
2022/10/21 00:17:23;;;;;;;0.70;0.45;;;11.40;99.90;;;;;;5044787;28;20056;-76
2022/10/21 00:19:51;;;;;;;0.40;0.40;;;11.40;99.90;;;;;;5041136;28;20053;-76
2022/10/21 00:22:17;;;;;;;1.45;0.60;;;11.40;99.90;;;;;;5026538;28;20040;-76
2022/10/21 00:24:45;;;;;;;0.60;0.60;;;11.40;99.90;;;;;;5044927;28;20104;-76
2022/10/21 00:27:11;;;;;;;0.55;0.50;;;11.40;99.90;;;;;;5043178;28;20057;-76
2022/10/21 00:29:38;;;;;;;0.60;0.60;;;11.40;99.90;;;;;;5042270;28;20049;-76
2022/10/21 00:32:05;;;;;;;0.98;0.80;;;11.40;99.90;;;;;;5043912;28;20542;-76
2022/10/21 00:34:32;;;;;;;0.85;0.60;;;11.50;99.90;;;;;;5025372;28;20049;-76
2022/10/21 00:36:59;;;;;;;0.50;0.50;;;11.50;99.90;;;;;;5042652;28;20048;-76
2022/10/21 00:39:26;;;;;;;0.50;0.50;;;11.50;99.90;;;;;;5044575;28;20383;-76
2022/10/21 00:41:52;;;;;;;0.80;0.40;;;11.50;99.90;;;;;;5042161;28;20048;-76
2022/10/21 00:44:19;;;;;;;0.43;0.30;;;11.60;99.90;;;;;;5044420;28;20314;-76
2022/10/21 00:46:50;;;;;;;0.90;0.63;;;11.60;99.90;;;;;;5040439;28;20041;-76
2022/10/21 00:49:28;;;;;;;0.80;0.50;;;11.70;99.90;;;;;;5027361;28;20059;-76
2022/10/21 00:51:57;;;;;;;0.30;0.30;;;11.60;99.90;;;;;;5026765;28;20072;-76
2022/10/21 00:54:24;;;;;;;0.50;0.50;;;11.60;99.90;;;;;;5008012;28;20479;-76
2022/10/21 00:56:51;;;;;;;0.60;0.50;;;11.60;99.90;;;;;;5043164;28;20359;-76
2022/10/21 00:59:28;;;;;;;0.73;0.45;;;11.60;99.90;;;;;;5039567;28;20068;-76
2022/10/21 01:01:55;;;;;;;0.30;0.30;;;11.70;99.90;;;;;;5007029;28;20456;-76
2022/10/21 01:04:22;;;;;;;0.40;0.40;;;11.70;99.90;;;;;;5026342;28;20045;-76
2022/10/21 01:06:49;;;;;;;0.20;0.20;;;11.70;99.90;;;;;;5025316;28;20905;-76
2022/10/21 01:09:15;;;;;;;0.82;0.50;;;11.70;99.90;;;;;;5026331;28;20395;-76
2022/10/21 01:11:44;;;;;;;0.77;0.50;;;11.80;99.90;;;;;;5024158;28;20042;-76
2022/10/21 01:14:35;;;;;;;0.52;0.50;;;11.80;99.90;;;;;;5026379;28;20048;-76
2022/10/21 01:17:21;;;;;;;0.20;0.20;;;11.90;99.90;;;;;;5042495;28;20461;-76
2022/10/21 01:20:33;;;;;;;0.40;0.40;;;11.90;99.90;;;;;;5037795;28;20041;-76
2022/10/21 01:23:12;;;;;;;0.35;0.35;;;11.90;99.90;;;;;;5041913;28;20143;-76
2022/10/21 01:26:06;;;;;;;0.50;0.50;;;11.90;99.90;;;;;;5043448;28;20131;-76
2022/10/21 01:28:59;;;;;;;0.35;0.30;;;11.90;99.90;;;;;;5051668;28;20049;-76
2022/10/21 01:31:44;;;;;;;0.40;0.40;;;11.90;99.90;;;;;;5027156;28;20053;-76
2022/10/21 01:34:20;;;;;;;0.30;0.30;;;11.90;99.90;;;;;;5027962;28;20049;-76
2022/10/21 01:37:05;;;;;;;0.22;0.22;;;11.90;99.90;;;;;;5025622;28;20045;-76
2022/10/21 01:39:37;;;;;;;0.50;0.50;;;12.00;99.90;;;;;;5045113;28;20051;-77
2022/10/21 01:42:26;;;;;;;0.55;0.52;;;12.00;99.90;;;;;;5027580;28;20480;-76
2022/10/21 01:45:01;;;;;;;0.43;0.30;;;12.10;99.90;;;;;;5056662;28;20049;-76
2022/10/21 01:47:32;;;;;;;0.60;0.50;;;12.10;99.90;;;;;;5027770;28;20041;-76
2022/10/21 01:50:09;;;;;;;0.68;0.50;;;12.20;99.90;;;;;;5025886;28;20053;-76
2022/10/21 01:52:37;;;;;;;0.38;0.38;;;12.10;99.90;;;;;;5028477;28;20041;-76
2022/10/21 01:55:07;;;;;;;0.68;0.60;;;12.20;99.90;;;;;;5026370;28;20653;-76
2022/10/21 01:57:40;;;;;;;1.00;0.55;;;12.20;99.90;;;;;;5026037;28;20056;-76
2022/10/21 02:00:07;;;;;;;1.00;0.60;;;12.20;99.90;;;;;;5028006;28;20059;-76
2022/10/21 02:02:37;;;;;;;0.70;0.70;;;12.20;99.90;;;;;;5026538;28;20053;-76
2022/10/21 02:05:09;;;;;;;0.50;0.40;;;12.20;99.90;;;;;;5027521;28;20438;-76
2022/10/21 02:07:36;;;;;;;0.60;0.60;;;12.20;99.90;;;;;;5043000;28;20051;-76
2022/10/21 02:10:03;;;;;;;0.50;0.50;;;12.20;99.90;;;;;;5011081;28;20056;-75
2022/10/21 02:12:31;;;;;;;0.70;0.65;;;12.20;99.90;;;;;;5028313;28;20052;-76
2022/10/21 02:14:57;;;;;;;0.80;0.70;;;12.20;99.90;;;;;;5044977;28;20136;-76
2022/10/21 02:17:25;;;;;;;1.73;0.95;;;12.30;99.90;;;;;;5010614;28;20053;-76
2022/10/21 02:19:52;;;;;;;0.60;0.60;;;12.30;99.90;;;;;;5043263;28;20037;-76
2022/10/21 02:22:19;;;;;;;0.65;0.65;;;12.30;99.90;;;;;;5044265;28;20045;-76
2022/10/21 02:24:55;;;;;;;1.08;0.90;;;12.40;99.90;;;;;;5028234;28;20531;-76
2022/10/21 02:27:22;;;;;;;0.95;0.85;;;12.40;99.90;;;;;;5045474;28;20392;-76
2022/10/21 02:29:50;;;;;;;0.82;0.70;;;12.50;99.90;;;;;;5044259;28;20055;-76
2022/10/21 02:32:40;;;;;;;0.85;0.75;;;12.50;99.90;;;;;;5027786;28;20045;-75
2022/10/21 02:35:34;;;;;;;1.10;0.82;;;12.60;99.90;;;;;;5029088;28;20048;-76
2022/10/21 02:38:16;;;;;;;1.10;0.80;;;12.60;99.90;;;;;;5059547;28;20123;-76
2022/10/21 02:40:48;;;;;;;1.65;0.88;;;12.70;99.90;;;;;;5046113;28;20408;-76
2022/10/21 02:43:23;;;;;;;0.75;0.70;;;12.70;99.90;;;;;;5028673;28;20428;-76
2022/10/21 02:45:50;;;;;;;0.63;0.63;;;12.80;99.90;;;;;;5045846;28;20045;-77
2022/10/21 02:48:16;;;;;;;1.42;1.20;;;12.80;99.90;;;;;;5028096;28;20270;-76
2022/10/21 02:50:43;;;;;;;1.00;0.90;;;12.90;99.90;;;;;;5044064;28;20508;-75
2022/10/21 02:53:10;;;;;;;1.02;0.93;;;12.90;99.90;;;;;;5044236;28;20489;-76
2022/10/21 02:55:36;;;;;;;1.08;0.95;;;13.00;99.90;;;;;;5028288;28;20542;-77
2022/10/21 02:58:03;;;;;;;1.20;1.00;;;13.00;99.90;;;;;;5045888;28;20053;-76
2022/10/21 03:00:30;;;;;;;0.80;0.80;;;13.10;99.90;;;;;;5044593;28;20377;-77
2022/10/21 03:02:58;;;;;;;1.00;0.90;;;13.20;99.90;;;;;;5044166;28;20098;-76
2022/10/21 03:05:25;;;;;;;1.17;1.05;;;13.20;99.90;;;;;;5042123;28;20842;-76
2022/10/21 03:07:52;;;;;;;1.48;1.25;;;13.30;99.90;;;;;;5028113;28;20118;-76
2022/10/21 03:10:19;;;;;;;1.23;1.00;;;13.40;99.90;;;;;;5028167;28;20040;-77
2022/10/21 03:12:48;;;;;;;1.52;1.15;;;13.50;99.90;;;;;;5043594;28;20037;-77
2022/10/21 03:15:15;;;;;;;2.05;1.50;;;13.60;99.90;;;;;;5027516;28;20053;-76
2022/10/21 03:17:42;;;;;;;1.35;1.23;;;13.60;99.90;;;;;;5029355;28;20046;-76
2022/10/21 03:20:09;;;;;;;1.23;1.13;;;13.50;99.90;;;;;;5043889;28;20096;-76
2022/10/21 03:22:35;;;;;;;1.60;1.10;;;13.50;99.90;;;;;;5043716;28;20126;-76
2022/10/21 03:25:03;;;;;;;1.63;1.52;;;13.50;99.90;;;;;;5044539;28;20403;-76
2022/10/21 03:27:29;;;;;;;1.60;1.27;;;13.60;99.90;;;;;;5043540;28;20047;-76
2022/10/21 03:30:02;;;;;;;2.05;1.58;;;13.60;99.90;;;;;;5028687;28;20068;-77
2022/10/21 03:32:29;;;;;;;2.20;1.70;;;13.70;99.90;;;;;;5025368;28;20042;-77
2022/10/21 03:34:55;;;;;;;2.90;2.38;;;13.80;99.90;;;;;;5044817;28;20052;-76
2022/10/21 03:37:22;;;;;;;2.40;2.05;;;13.90;99.90;;;;;;5043349;28;20037;-76
2022/10/21 03:39:49;;;;;;;3.25;2.65;;;14.10;99.90;;;;;;5042912;28;20048;-76
2022/10/21 03:42:16;;;;;;;2.78;2.47;;;14.20;99.90;;;;;;5043549;28;20064;-76
2022/10/21 03:44:42;;;;;;;2.80;2.50;;;14.20;99.90;;;;;;5044192;28;20047;-76
2022/10/21 03:47:10;;;;;;;3.33;3.00;;;14.30;99.90;;;;;;5043338;28;20044;-76
2022/10/21 03:49:36;;;;;;;3.38;3.08;;;14.40;99.90;;;;;;5045093;28;20059;-76
2022/10/21 03:52:03;;;;;;;3.83;3.33;;;14.50;99.90;;;;;;5026669;28;20052;-76
2022/10/21 03:54:30;;;;;;;3.03;2.72;;;14.50;99.90;;;;;;5042505;28;20090;-76
2022/10/21 03:56:57;;;;;;;2.85;2.45;;;14.50;99.90;;;;;;5044877;28;20081;-76
2022/10/21 03:59:23;;;;;;;3.00;2.45;;;14.50;99.90;;;;;;5027488;28;20508;-76
2022/10/21 04:01:51;;;;;;;2.60;2.30;;;14.50;99.90;;;;;;5040304;28;20052;-76
2022/10/21 04:04:17;;;;;;;2.50;2.22;;;14.50;99.90;;;;;;5044600;28;20128;-76
2022/10/21 04:06:44;;;;;;;2.70;2.05;;;14.40;99.90;;;;;;5026210;28;20064;-76
2022/10/21 04:09:11;;;;;;;2.25;1.88;;;14.40;99.90;;;;;;5044745;28;20484;-76
2022/10/21 04:11:38;;;;;;;2.00;1.80;;;14.30;99.90;;;;;;5044766;28;20049;-76
2022/10/21 04:14:05;;;;;;;1.90;1.60;;;14.30;99.90;;;;;;5027803;28;20048;-76
2022/10/21 04:16:32;;;;;;;2.15;1.95;;;14.30;99.90;;;;;;5025772;28;20050;-76
2022/10/21 04:19:00;;;;;;;1.60;1.50;;;14.20;99.90;;;;;;5045106;28;20144;-76
2022/10/21 04:21:26;;;;;;;1.75;1.52;;;14.10;99.90;;;;;;5026534;28;20400;-77
2022/10/21 04:23:53;;;;;;;1.92;1.45;;;14.00;99.90;;;;;;5044556;28;20479;-76
2022/10/21 04:26:20;;;;;;;1.50;1.38;;;13.90;99.90;;;;;;5042809;28;20037;-76
2022/10/21 04:28:47;;;;;;;2.13;1.20;;;13.80;99.90;;;;;;5027430;28;20064;-76
2022/10/21 04:31:13;;;;;;;1.20;1.10;;;13.80;99.90;;;;;;5044179;28;20798;-76
2022/10/21 04:33:40;;;;;;;1.42;1.30;;;13.70;99.90;;;;;;5042066;28;20160;-76
2022/10/21 04:36:07;;;;;;;1.60;1.15;;;13.60;99.90;;;;;;5044065;28;20124;-77
2022/10/21 04:38:33;;;;;;;1.30;1.20;;;13.50;99.90;;;;;;5047213;28;20041;-75
2022/10/21 04:41:02;;;;;;;1.83;1.50;;;13.50;99.90;;;;;;5049613;28;20053;-77
2022/10/21 04:43:29;;;;;;;1.70;1.45;;;13.40;99.90;;;;;;5040821;28;20050;-76
2022/10/21 04:45:56;;;;;;;2.05;1.77;;;13.40;99.90;;;;;;5035155;28;20045;-76
2022/10/21 04:48:23;;;;;;;1.25;1.15;;;13.30;99.90;;;;;;5006827;28;20049;-76
2022/10/21 04:50:50;;;;;;;2.13;1.73;;;13.30;99.90;;;;;;5045155;28;20417;-77
2022/10/21 04:53:17;;;;;;;2.08;1.58;;;13.20;99.90;;;;;;5026295;28;20061;-76
2022/10/21 04:55:44;;;;;;;2.08;1.77;;;13.10;99.90;;;;;;5010443;28;20053;-77
2022/10/21 04:58:11;;;;;;;2.28;1.65;;;13.10;99.90;;;;;;5027553;28;20048;-76
2022/10/21 05:00:37;;;;;;;1.90;1.70;;;13.10;99.90;;;;;;5043237;28;20389;-76
2022/10/21 05:03:04;;;;;;;1.92;1.70;;;13.10;99.90;;;;;;5044156;28;20142;-77
2022/10/21 05:05:31;;;;;;;3.47;2.20;;;13.10;99.90;;;;;;5027293;28;20049;-76
2022/10/21 05:07:58;;;;;;;2.20;1.90;;;13.20;99.90;;;;;;5059404;28;20075;-76
2022/10/21 05:10:24;;;;;;;3.17;1.80;;;13.20;99.90;;;;;;5033924;28;20053;-77
2022/10/21 05:12:51;;;;;;;3.38;2.10;;;13.20;99.90;;;;;;5039191;28;20041;-77
2022/10/21 05:15:18;;;;;;;2.00;1.80;;;13.20;99.90;;;;;;5030272;28;20044;-76
2022/10/21 05:17:45;;;;;;;1.88;1.52;;;13.20;99.90;;;;;;5048057;28;20053;-76
2022/10/21 05:20:14;;;;;;;2.47;2.00;;;13.20;99.90;;;;;;5048357;28;20140;-77
2022/10/21 05:22:41;;;;;;;2.85;2.13;;;13.20;99.90;;;;;;5044031;28;20416;-77
2022/10/21 05:25:08;;;;;;;1.95;1.70;;;13.30;99.90;;;;;;5047460;28;20477;-77
2022/10/21 05:27:35;;;;;;;2.78;2.10;;;13.30;99.90;;;;;;5046253;28;20041;-79
2022/10/21 05:30:03;;;;;;;1.88;1.67;;;13.30;99.90;;;;;;5045605;28;20082;-78
2022/10/21 05:32:29;;;;;;;2.78;1.85;;;13.40;99.90;;;;;;5043529;28;20041;-78
2022/10/21 05:34:56;;;;;;;1.90;1.55;;;13.40;99.90;;;;;;5043641;28;20045;-78
2022/10/21 05:37:23;;;;;;;2.17;1.80;;;13.40;99.90;;;;;;5021640;28;20110;-79
2022/10/21 05:39:50;;;;;;;1.90;1.60;;;13.30;99.90;;;;;;5053889;28;20495;-78
2022/10/21 05:42:16;;;;;;;2.00;1.80;;;13.40;99.90;;;;;;5026050;28;20932;-78
2022/10/21 05:44:43;;;;;;;1.77;1.63;;;13.40;99.90;;;;;;5010824;28;20055;-78
2022/10/21 05:47:10;;;;;;;2.42;2.10;;;13.40;99.90;;;;;;5047313;28;20232;-78
2022/10/21 05:49:37;;;;;;;2.60;1.73;;;13.40;99.90;;;;;;5036360;28;20058;-78
2022/10/21 05:52:04;;;;;;;1.85;1.50;;;13.30;99.90;;;;;;5038766;28;20056;-78
2022/10/21 05:54:30;;;;;;;1.98;1.58;;;13.40;99.90;;;;;;5020517;28;20060;-78
2022/10/21 05:56:57;;;;;;;1.77;1.40;;;13.40;99.90;;;;;;5021659;28;20042;-78
2022/10/21 05:59:25;;;;;;;1.58;1.42;;;13.40;99.90;;;;;;5030135;28;20060;-78
2022/10/21 06:01:52;;;;;;;1.75;1.55;;;13.40;99.90;;;;;;5022864;28;20159;-78
2022/10/21 06:04:19;;;;;;;3.33;1.90;;;13.40;99.90;;;;;;5042318;28;20049;-78
2022/10/21 06:06:46;;;;;;;2.30;1.70;;;13.40;99.90;;;;;;5055217;28;20060;-78
2022/10/21 06:09:13;;;;;;;3.03;2.70;;;13.50;99.90;;;;;;5034332;28;20407;-78
2022/10/21 06:11:41;;;;;;;2.45;1.90;;;13.60;99.90;;;;;;5045850;28;20131;-78
2022/10/21 06:14:08;;;;;;;2.28;1.90;;;13.70;99.90;;;;;;5029352;28;20051;-77
2022/10/21 06:16:36;;;;;;;2.20;1.77;;;13.70;99.90;;;;;;5032882;28;20049;-78
2022/10/21 06:19:03;;;;;;;2.60;1.80;;;13.70;99.90;;;;;;5042214;28;20044;-76
2022/10/21 06:21:30;;;;;;;2.63;1.95;;;13.70;99.90;;;;;;5036384;28;20164;-75
2022/10/21 06:23:56;;;;;;;2.90;1.83;;;13.70;99.90;;;;;;5038756;28;20055;-76
2022/10/21 06:26:24;;;;;;;2.05;1.70;;;13.80;99.90;;;;;;5043329;28;20453;-76
2022/10/21 06:28:50;;;;;;;3.17;2.00;;;13.80;99.90;;;;;;5035719;28;20139;-76
2022/10/21 06:31:19;;;;;;;2.15;1.75;;;13.80;99.90;;;;;;5031334;28;20500;-76
2022/10/21 06:33:46;;;;;;;2.28;1.83;;;13.80;99.90;;;;;;5023414;28;20107;-76
2022/10/21 06:36:13;;;;;;;2.42;1.92;;;13.90;99.90;;;;;;5021311;28;20566;-76
2022/10/21 06:38:40;;;;;;;2.75;2.25;;;13.90;99.90;;;;;;5042575;28;20484;-76
2022/10/21 06:41:08;;;;;;;2.42;2.03;;;14.00;99.90;;;;;;5023454;28;20049;-76
2022/10/21 06:43:39;;;;;;;3.05;2.22;;;14.00;99.90;;;;;;5027024;28;20044;-76
2022/10/21 06:46:08;;;;;;;2.13;1.83;;;14.00;99.90;;;;;;5045240;28;20860;-75
2022/10/21 06:48:35;;;;;;;2.15;1.83;;;14.10;99.90;;;;;;5020448;28;20059;-75
2022/10/21 06:51:03;;;;;;;1.92;1.60;;;14.10;99.90;;;;;;5010970;28;20075;-75
2022/10/21 06:53:30;;;;;;;2.40;1.63;;;14.10;99.90;;;;;;5035635;28;20067;-76
2022/10/21 06:56:09;;;;;;;1.92;1.70;;;14.20;99.90;;;;;;5041343;28;20076;-75
2022/10/21 06:58:37;;;;;;;2.45;1.58;;;14.20;99.90;;;;;;5006612;28;20060;-75
2022/10/21 07:01:11;;;;;;;2.63;1.92;;;14.30;99.90;;;;;;5023343;28;20059;-75
2022/10/21 07:03:58;;;;;;;2.25;1.60;;;14.30;99.90;;;;;;5024132;28;20052;-75
2022/10/21 07:06:24;;;;;;;2.80;1.85;;;14.40;99.90;;;;;;5010533;28;20052;-75
2022/10/21 07:08:51;;;;;;;1.60;1.17;;;14.40;99.90;;;;;;5020388;28;20060;-75
2022/10/21 07:11:26;;;;;;;3.30;1.30;;;14.50;99.90;;;;;;5002780;28;20602;-75
2022/10/21 07:13:53;;;;;;;3.05;1.85;;;14.60;99.90;;;;;;5009751;28;20144;-76
2022/10/21 07:16:24;;;;;;;2.05;1.80;;;14.70;99.90;;;;;;5059797;28;20057;-76
2022/10/21 07:18:52;;;;;;;2.38;1.80;;;14.80;99.90;;;;;;5011472;28;20079;-76
2022/10/21 07:21:20;;;;;;;2.72;1.58;;;14.90;99.90;;;;;;5039027;28;20076;-76
2022/10/21 07:23:48;;;;;;;2.60;1.50;;;15.00;99.90;;;;;;5020184;28;20424;-76
2022/10/21 07:26:14;;;;;;;3.65;1.77;;;15.00;99.90;;;;;;5020706;28;20060;-76
2022/10/21 07:28:46;;;;;;;1.90;1.40;;;15.10;99.90;;;;;;5018664;28;20531;-76
2022/10/21 07:31:19;;;;;;;1.63;1.33;;;15.10;99.90;;;;;;5043174;28;20527;-75
2022/10/21 07:33:46;;;;;;;1.50;1.25;;;15.10;99.90;;;;;;5038905;28;20151;-76
2022/10/21 07:36:18;;;;;;;2.50;1.48;;;15.10;99.90;;;;;;5024386;28;20053;-76
2022/10/21 07:38:45;;;;;;;1.73;1.02;;;15.20;99.90;;;;;;5060624;28;20056;-75
2022/10/21 07:41:17;;;;;;;2.35;1.33;;;15.20;99.90;;;;;;5018587;28;20080;-75
2022/10/21 07:43:43;;;;;;;1.95;1.35;;;15.30;99.90;;;;;;5032034;28;20049;-75
2022/10/21 07:46:10;;;;;;;2.63;1.38;;;15.30;99.90;;;;;;5017941;28;20493;-76
2022/10/21 07:48:37;;;;;;;1.35;1.00;;;15.40;99.90;;;;;;5023276;28;20059;-76
2022/10/21 07:51:08;;;;;;;1.90;1.38;;;15.40;99.90;;;;;;5015859;28;20053;-76
2022/10/21 07:53:35;;;;;;;1.55;1.20;;;15.50;99.90;;;;;;5035518;28;20110;-76
2022/10/21 07:56:02;;;;;;;1.52;1.23;;;15.50;99.90;;;;;;5020179;28;20076;-76
2022/10/21 07:58:29;;;;;;;2.03;1.10;;;15.50;99.90;;;;;;5038873;28;20069;-76
2022/10/21 08:00:58;;;;;;;2.13;1.48;;;15.60;99.90;;;;;;5009260;28;20421;-76
2022/10/21 08:03:24;;;;;;;1.30;1.00;;;15.70;99.90;;;;;;5027111;28;20056;-76
2022/10/21 08:05:51;;;;;;;1.80;1.08;;;15.80;99.90;;;;;;5007218;28;20045;-75
2022/10/21 08:08:20;;;;;;;1.73;1.42;;;15.80;99.90;;;;;;5037884;28;20530;-75
2022/10/21 08:10:48;;;;;;;2.13;1.30;;;15.90;99.90;;;;;;5021206;28;20067;-75
2022/10/21 08:13:20;;;;;;;;;;;16.00;99.90;;;;;;5051719;28;20045;-76
2022/10/21 08:15:49;;;;;;;2.03;1.17;;;16.00;99.90;;;;;;5037002;28;20208;-76
2022/10/21 08:18:16;;;;;;;2.17;1.55;;;16.10;99.90;;;;;;5033679;28;20053;-76
2022/10/21 08:20:44;;;;;;;1.60;1.30;;;16.10;99.90;;;;;;5003049;28;20060;-76
2022/10/21 08:23:11;;;;;;;1.67;1.30;;;16.20;99.90;;;;;;5017656;28;20072;-76
2022/10/21 08:25:38;;;;;;;2.05;1.13;;;16.20;99.90;;;;;;5021563;28;20311;-76
2022/10/21 08:28:05;;;;;;;2.10;1.50;;;16.30;99.90;;;;;;5004961;28;20409;-76
2022/10/21 08:30:32;;;;;;;2.75;1.27;;;16.40;99.90;;;;;;5003994;28;20075;-76
2022/10/21 08:32:58;;;;;;;2.17;1.30;;;16.40;99.90;;;;;;5037358;28;20057;-76
2022/10/21 08:35:28;;;;;;;3.15;1.13;;;16.40;99.90;;;;;;5006888;28;20525;-76
2022/10/21 08:37:55;;;;;;;1.52;1.00;;;16.40;99.90;;;;;;5021093;28;20413;-76
2022/10/21 08:40:22;;;;;;;1.67;1.02;;;16.40;99.90;;;;;;5004569;28;20064;-76
2022/10/21 08:42:48;;;;;;;2.97;1.13;;;16.50;99.90;;;;;;5005154;28;20049;-76
2022/10/21 08:45:40;;;;;;;2.53;1.20;;;16.60;99.90;;;;;;5006272;28;20052;-76
2022/10/21 08:48:07;;;;;;;2.38;0.95;;;16.70;99.90;;;;;;5025406;28;20057;-76
2022/10/21 08:50:43;;;;;;;2.92;1.33;;;16.80;99.90;;;;;;5027545;28;20044;-76
2022/10/21 08:53:13;;;;;;;1.67;1.15;;;16.90;99.90;;;;;;5011855;28;20048;-76
2022/10/21 08:55:41;;;;;;;1.20;1.02;;;16.90;99.90;;;;;;5044712;28;20214;-77
2022/10/21 08:58:13;;;;;;;1.15;0.77;;;17.00;99.90;;;;;;5009763;28;20107;-76
2022/10/21 09:00:54;;;;;;;1.85;0.90;;;17.00;99.90;;;;;;5036027;28;20049;-76
2022/10/21 09:03:42;;;;;;;2.17;1.20;;;17.00;99.90;;;;;;5030594;28;20067;-76
2022/10/21 09:06:16;;;;;;;1.88;1.00;;;17.10;99.90;;;;;;5036614;28;20077;-77
2022/10/21 09:09:08;;;;;;;4.47;0.93;;;17.00;99.90;;;;;;5045578;28;20049;-76
2022/10/21 09:11:59;;;;;;;2.50;1.30;;;17.00;99.90;;;;;;5040543;28;20092;-76
2022/10/21 09:14:56;;;;;;;1.85;0.93;;;17.00;99.90;;;;;;5007220;28;20104;-76
2022/10/21 09:17:44;;;;;;;1.70;0.80;;;16.90;99.90;;;;;;5055004;28;20049;-76
2022/10/21 09:20:35;;;;;;;3.33;1.30;;;16.90;99.90;;;;;;5041366;28;20227;-80
2022/10/21 09:23:23;;;;;;;1.30;0.77;;;16.90;99.90;;;;;;5047912;28;20053;-77
2022/10/21 09:26:15;;;;;;;3.13;1.10;;;16.90;99.90;;;;;;5052993;28;20077;-77
2022/10/21 09:28:42;;;;;;;2.58;1.10;;;16.80;99.90;;;;;;5039944;28;20045;-77
2022/10/21 09:31:16;;;;;;;1.98;1.00;;;16.90;99.90;;;;;;5039760;28;20049;-77
2022/10/21 09:33:57;;;;;;;3.50;1.60;;;16.80;99.90;;;;;;5021036;28;20417;-80
2022/10/21 09:37:02;;;;;;;2.72;1.05;;;16.80;99.90;;;;;;5007766;28;20049;-78
2022/10/21 09:39:35;;;;;;;4.20;1.40;;;16.70;99.90;;;;;;5023195;28;20053;-78
2022/10/21 09:42:02;;;;;;;1.80;0.98;;;16.80;99.90;;;;;;5008891;28;20052;-77
2022/10/21 09:44:38;;;;;;;1.13;0.90;;;16.80;99.90;;;;;;5042025;28;20435;-77
2022/10/21 09:47:41;;;;;;;1.58;1.02;;;16.90;99.90;;;;;;5020776;28;20442;-78
2022/10/21 09:50:13;;;;;;;2.72;1.30;;;17.00;99.90;;;;;;5021318;28;20132;-77
2022/10/21 09:52:40;;;;;;;1.80;0.88;;;17.10;99.90;;;;;;5019194;28;20250;-78
2022/10/21 09:55:11;;;;;;;2.53;1.30;;;17.20;99.90;;;;;;5020225;28;20636;-77
2022/10/21 09:57:51;;;;;;;1.70;1.08;;;17.30;99.90;;;;;;5040222;28;20442;-78
2022/10/21 10:00:18;;;;;;;3.03;1.30;;;17.30;99.90;;;;;;5024750;28;20056;-77
2022/10/21 10:02:45;;;;;;;1.90;1.10;;;17.50;99.90;;;;;;5008654;28;20068;-77
2022/10/21 10:05:37;;;;;;;2.88;1.15;;;17.60;99.90;;;;;;5049257;28;20354;-77
2022/10/21 10:08:35;;;;;;;2.85;0.90;;;17.80;99.90;;;;;;5046446;28;20052;-76
2022/10/21 10:11:20;;;;;;;2.22;1.25;;;18.00;99.90;;;;;;5017872;28;20214;-77
2022/10/21 10:13:49;;;;;;;1.85;1.00;;;18.10;99.90;;;;;;5028002;28;20427;-77
2022/10/21 10:16:25;;;;;;;2.63;1.25;;;18.00;99.90;;;;;;5006453;28;20053;-77
2022/10/21 10:19:15;;;;;;;5.13;1.90;;;17.90;99.90;;;;;;5048909;28;20076;-79
2022/10/21 10:21:43;;;;;;;2.88;1.42;;;17.80;99.90;;;;;;5058230;28;20044;-78
2022/10/21 10:24:17;;;;;;;3.08;1.52;;;17.70;99.90;;;;;;5024791;28;20080;-78
2022/10/21 10:26:44;;;;;;;3.30;1.23;;;17.70;99.90;;;;;;5028448;28;20156;-77
2022/10/21 10:29:14;;;;;;;3.30;1.30;;;17.70;99.90;;;;;;5013586;28;20053;-78
2022/10/21 10:31:48;;;;;;;2.63;0.88;;;17.70;99.90;;;;;;5045984;28;20053;-78
2022/10/21 10:34:27;;;;;;;2.45;1.08;;;17.70;99.90;;;;;;5012614;28;20115;-77
2022/10/21 10:37:15;;;;;;;5.13;1.60;;;17.70;99.90;;;;;;5028935;28;20405;-77
2022/10/21 10:39:41;;;;;;;3.58;1.10;;;17.60;99.90;;;;;;5026172;28;20076;-77
2022/10/21 10:42:08;;;;;;;2.33;0.95;;;17.60;99.90;;;;;;5009362;28;20049;-77
2022/10/21 10:44:37;;;;;;;2.55;1.10;;;17.60;99.90;;;;;;5020950;28;20064;-76
2022/10/21 10:47:04;;;;;;;2.40;1.20;;;17.50;99.90;;;;;;5024517;28;20057;-77
2022/10/21 10:49:40;;;;;;;2.15;1.20;;;17.60;99.90;;;;;;5032213;28;20052;-76
2022/10/21 10:52:14;;;;;;;4.05;1.67;;;17.60;99.90;;;;;;5011764;28;20458;-76
2022/10/21 10:54:41;;;;;;;2.90;1.25;;;17.60;99.90;;;;;;5042071;28;20041;-77
2022/10/21 10:57:22;;;;;;;4.45;1.30;;;17.70;99.90;;;;;;5009053;28;20143;-77
2022/10/21 11:00:05;;;;;;;2.85;1.40;;;17.90;99.90;;;;;;5030593;28;20125;-78
2022/10/21 11:02:53;;;;;;;3.03;1.40;;;18.10;99.90;;;;;;5027861;28;20061;-77
2022/10/21 11:05:26;;;;;;;1.05;0.70;;;18.40;99.90;;;;;;5044035;28;20062;-77
2022/10/21 11:08:00;;;;;;;3.47;1.20;;;18.60;99.90;;;;;;5044923;28;20072;-77
2022/10/21 11:10:41;;;;;;;3.92;1.50;;;18.70;99.90;;;;;;5010309;28;20053;-77
2022/10/21 11:13:13;;;;;;;4.40;1.30;;;18.60;99.90;;;;;;5016945;28;20054;-77
2022/10/21 11:16:10;;;;;;;5.00;1.40;;;18.60;99.90;;;;;;5039065;28;20397;-81
2022/10/21 11:18:48;;;;;;;4.32;1.63;;;18.70;99.90;;;;;;5036921;28;20052;-78
2022/10/21 11:21:15;;;;;;;4.20;1.48;;;18.80;99.90;;;;;;5044803;28;20048;-78
2022/10/21 11:24:30;;;;;;;3.42;1.50;;;18.80;99.90;;;;;;5042902;28;20055;-78
2022/10/21 11:27:24;;;;;;;3.75;1.17;;;18.90;99.90;;;;;;4973772;28;20089;-78
2022/10/21 11:30:10;;;;;;;4.47;1.63;;;19.00;99.90;;;;;;5047381;28;20059;-78
2022/10/21 11:32:51;;;;;;;2.33;1.25;;;19.00;99.90;;;;;;5042016;28;20052;-78
2022/10/21 11:35:40;;;;;;;3.90;1.40;;;18.80;99.90;;;;;;5041383;28;20504;-79
2022/10/21 11:38:26;;;;;;;2.58;1.33;;;18.90;99.90;;;;;;5034827;28;20056;-81
2022/10/21 11:41:06;;;;;;;4.38;1.40;;;19.00;99.90;;;;;;5041102;28;20219;-80
2022/10/21 11:43:46;;;;;;;2.58;1.50;;;19.20;99.90;;;;;;5020805;28;20041;-78
2022/10/21 11:46:17;;;;;;;4.05;2.15;;;19.30;99.90;;;;;;5004822;28;20135;-80
2022/10/21 11:49:15;;;;;;;3.22;1.60;;;19.40;99.90;;;;;;5022594;28;20400;-80
2022/10/21 11:52:10;;;;;;;3.42;1.42;;;19.70;99.90;;;;;;5022143;28;20053;-78
2022/10/21 11:55:21;;;;;;;2.60;1.55;;;19.90;99.90;;;;;;5011426;28;20045;-78
2022/10/21 11:58:10;;;;;;;5.22;2.22;;;20.10;99.90;;;;;;5026695;28;20382;-77
2022/10/21 12:01:03;;;;;;;4.20;1.92;;;20.10;99.90;;;;;;5020519;28;20071;-77
2022/10/21 12:03:48;;;;;;;;;;;20.30;99.90;;;;;;5046150;28;20056;-78
2022/10/21 12:06:30;;;;;;;4.95;2.00;;;20.50;99.90;;;;;;5053116;28;20376;-78
2022/10/21 12:09:00;;;;;;;3.38;1.60;;;20.70;99.90;;;;;;5038978;28;20061;-78
2022/10/21 12:11:37;;;;;;;3.10;1.70;;;21.00;99.90;;;;;;5011761;28;20404;-78
2022/10/21 12:14:23;;;;;;;2.75;1.20;;;21.10;99.90;;;;;;5028900;28;20045;-78
2022/10/21 12:16:57;;;;;;;3.45;1.70;;;21.10;99.90;;;;;;5040759;28;20216;-78
2022/10/21 12:19:24;;;;;;;4.03;1.70;;;20.80;99.90;;;;;;5024469;28;20048;-78
2022/10/21 12:21:50;;;;;;;5.13;2.00;;;20.70;99.90;;;;;;5043098;28;20045;-77
2022/10/21 12:24:29;;;;;;;3.13;1.60;;;20.70;99.90;;;;;;5021774;28;20065;-79
2022/10/21 12:27:11;;;;;;;3.30;1.83;;;21.00;99.90;;;;;;5044786;28;20048;-78
2022/10/21 12:30:16;;;;;;;4.13;1.88;;;21.20;99.90;;;;;;5042665;28;20045;-78
2022/10/21 12:33:01;;;;;;;5.18;1.83;;;21.10;99.90;;;;;;5048355;28;20508;-78
2022/10/21 12:35:46;;;;;;;1.83;0.95;;;21.00;99.90;;;;;;5042762;28;20371;-78
2022/10/21 12:38:40;;;;;;;2.83;1.05;;;21.10;99.90;;;;;;5046864;28;20052;-78
2022/10/21 12:41:22;;;;;;;3.97;1.35;;;21.30;99.90;;;;;;5039057;28;20404;-78
2022/10/21 12:44:02;;;;;;;4.57;1.48;;;21.40;99.90;;;;;;5055477;28;20055;-78
2022/10/21 12:46:39;;;;;;;2.67;1.40;;;21.20;99.90;;;;;;5056696;28;20049;-77
2022/10/21 12:49:18;;;;;;;3.40;1.42;;;21.00;99.90;;;;;;5024882;28;20049;-77
2022/10/21 12:52:01;;;;;;;4.53;1.58;;;20.80;99.90;;;;;;5044622;28;20071;-77
2022/10/21 12:54:47;;;;;;;4.60;1.75;;;20.70;99.90;;;;;;5037255;28;20061;-78
2022/10/21 12:57:40;;;;;;;3.45;1.45;;;20.50;99.90;;;;;;5022453;28;20235;-78
2022/10/21 13:00:26;;;;;;;3.88;1.45;;;20.40;99.90;;;;;;5004559;28;20068;-81
2022/10/21 13:03:03;;;;;;;4.80;2.00;;;20.30;99.90;;;;;;5035809;28;20057;-78
2022/10/21 13:05:35;;;;;;;4.55;1.88;;;20.30;99.90;;;;;;5042840;28;20045;-78
2022/10/21 13:08:24;;;;;;;3.97;1.90;;;20.40;99.90;;;;;;5042127;28;20061;-79
2022/10/21 13:11:03;;;;;;;5.05;2.08;;;20.40;99.90;;;;;;5033664;28;20065;-78
2022/10/21 13:13:35;;;;;;;4.07;1.42;;;20.30;99.90;;;;;;5048568;28;20408;-78
2022/10/21 13:16:20;;;;;;;3.88;1.40;;;20.30;99.90;;;;;;5024936;28;20081;-78